Hauptseite
METAR-TAF:

METAR-TAF

Flughäfen :

Flughafen Edinburgh

Edinburgh, Schottland

Breite: 55-57N, Länge: 003-21W, Höhe: 41 m

Beobachtung

Neuester Wetterbericht von vor 11 Minuten, um 01:50 UTC
Wind 9 kt aus Ost
Temperatur 11°C
Luftfeuchtigkeit 87%
Luftdruck 1028 hPa
Sichtweite 10 km oder mehr
keine Wolken unter 1500 m und keine Kumulonimbus oder Gewitterwolken

METAR: EGPH 260150Z 09009KT CAVOK 11/09 Q1028

Zeit: 03:01 (02:01 UTC)

Prognose

Neuester Wetterbericht von vor 3 Stunden und 4 Minuten, um 22:57 UTC
Gültige Prognose vom 26 um 00 UTC bis 26 um 24 UTC
Wind 7 kt aus Ost/Nordost
Sichtweite 10 km oder mehr
Leicht bewölkt in der Höhe von 4500 ft
Wahrscheinlichkeit 30%
vom 26 um 00 UTC bis 26 um 07 UTC
Sichtweite: 7000 m
Zeitweise
vom 26 um 12 UTC bis 26 um 18 UTC
Wind 17 kt aus Ost/Nordost, Böen bis zu 27 kt

TAF: EGPH 252257Z 2600/2624 07007KT 9999 FEW045 PROB30 2600/2607 7000 TEMPO 2612/2618 07017G27KT

Wetterbeobachtungen und Prognosen von mehr als 4000 Flughäfen (METAR und TAF Bericht).

Die verfügbaren Stationen werden durch gelbe und rote Markierungen auf der Karte dargestellt.

Führen Sie die Maus auf sie, um den Namen der Station zu sehen.

Darauf klicken, um die Beobachtung von Wetterbeobachtungen und Prognosen zu sehen.

Um die Karte zu ändern : klicken Sie auf den grünen Tasten mit einem schwarzen Kreuz Zum Vergrößern, auf den grünen Button mit einem Gedankenstrich zu verkleinern, oder auf die grünen Pfeile für benachbarte Karten.


METAR-TAF: